createdAt,value
2022-09-29T00:01:16.694Z,8.30
2022-09-29T00:03:44.564Z,7.60
2022-09-29T00:06:15.537Z,8.20
2022-09-29T00:08:44.069Z,7.00
2022-09-29T00:11:17.607Z,6.40
2022-09-29T00:13:47.014Z,8.20
2022-09-29T00:16:15.175Z,7.90
2022-09-29T00:18:43.245Z,7.40
2022-09-29T00:21:22.053Z,7.30
2022-09-29T00:23:50.579Z,8.60
2022-09-29T00:26:24.304Z,7.30
2022-09-29T00:28:56.962Z,8.80
2022-09-29T00:31:27.300Z,9.20
2022-09-29T00:33:55.652Z,7.90
2022-09-29T00:36:24.240Z,8.20
2022-09-29T00:38:53.377Z,8.10
2022-09-29T00:41:26.834Z,7.10
2022-09-29T00:44:19.311Z,7.90
2022-09-29T00:46:53.435Z,7.90
2022-09-29T00:49:24.470Z,8.30
2022-09-29T00:52:27.618Z,8.30
2022-09-29T00:55:01.713Z,7.80
2022-09-29T00:57:34.231Z,8.00
2022-09-29T01:00:08.925Z,8.00
2022-09-29T01:02:40.844Z,7.70
2022-09-29T01:05:16.111Z,8.40
2022-09-29T01:07:44.634Z,7.20
2022-09-29T01:10:17.020Z,8.90
2022-09-29T01:12:47.360Z,8.00
2022-09-29T01:15:19.475Z,7.50
2022-09-29T01:17:48.911Z,8.50
2022-09-29T01:20:20.673Z,9.40
2022-09-29T01:23:22.547Z,9.20
2022-09-29T01:25:53.233Z,9.30
2022-09-29T01:28:39.264Z,9.10
2022-09-29T01:31:16.339Z,9.60
2022-09-29T01:33:57.411Z,8.90
2022-09-29T01:36:44.757Z,9.90
2022-09-29T01:39:18.808Z,10.50
2022-09-29T01:42:05.168Z,9.80
2022-09-29T01:44:39.408Z,10.80
2022-09-29T01:47:12.790Z,11.70
2022-09-29T01:49:45.622Z,11.50
2022-09-29T01:52:22.733Z,11.60
2022-09-29T01:54:52.765Z,11.80
2022-09-29T01:57:33.829Z,13.20
2022-09-29T02:00:19.022Z,12.60
2022-09-29T02:02:53.659Z,14.70
2022-09-29T02:05:36.347Z,12.70
2022-09-29T02:08:16.230Z,13.90
2022-09-29T02:10:55.241Z,13.40
2022-09-29T02:13:24.660Z,13.50
2022-09-29T02:15:57.478Z,12.80
2022-09-29T02:18:44.550Z,13.60
2022-09-29T02:21:12.408Z,13.10
2022-09-29T02:23:40.602Z,13.20
2022-09-29T02:26:12.129Z,13.10
2022-09-29T02:28:40.495Z,12.10
2022-09-29T02:31:08.841Z,12.20
2022-09-29T02:33:36.900Z,11.00
2022-09-29T02:36:23.663Z,11.20
2022-09-29T02:38:51.635Z,11.20
2022-09-29T02:41:51.357Z,9.70
2022-09-29T02:44:32.566Z,10.30
2022-09-29T02:47:19.601Z,10.50
2022-09-29T02:49:53.517Z,9.30
2022-09-29T02:52:38.123Z,9.50
2022-09-29T02:55:12.856Z,10.00
2022-09-29T02:57:48.859Z,10.70
2022-09-29T03:00:18.772Z,9.80
2022-09-29T03:02:47.422Z,4.40
2022-09-29T03:05:18.408Z,4.80
2022-09-29T03:07:46.357Z,5.30
2022-09-29T03:10:16.686Z,4.40
2022-09-29T03:12:44.669Z,4.80
2022-09-29T03:15:13.193Z,6.00
2022-09-29T03:17:41.518Z,5.10
2022-09-29T03:20:10.689Z,5.20
2022-09-29T03:22:38.556Z,5.60
2022-09-29T03:25:06.937Z,7.10
2022-09-29T03:27:36.775Z,6.40
2022-09-29T03:30:05.558Z,5.80
2022-09-29T03:32:33.404Z,6.30
2022-09-29T03:35:01.252Z,6.40
2022-09-29T03:37:29.080Z,6.30
2022-09-29T03:39:56.983Z,8.10
2022-09-29T03:42:24.893Z,7.90
2022-09-29T03:44:52.714Z,10.30
2022-09-29T03:47:20.523Z,10.20
2022-09-29T03:49:48.342Z,10.00
2022-09-29T03:52:16.453Z,10.90
2022-09-29T03:54:44.471Z,13.40
2022-09-29T03:57:12.326Z,11.40
2022-09-29T03:59:45.283Z,12.40
2022-09-29T04:02:14.472Z,11.40
2022-09-29T04:04:42.528Z,12.30
2022-09-29T04:07:10.746Z,12.50
2022-09-29T04:09:38.682Z,14.00
2022-09-29T04:12:06.751Z,12.30
2022-09-29T04:14:34.583Z,11.80
2022-09-29T04:17:02.721Z,11.60
2022-09-29T04:19:30.988Z,10.50
2022-09-29T04:21:59.142Z,10.80
2022-09-29T04:24:27.214Z,10.70
2022-09-29T04:26:55.086Z,10.50
2022-09-29T04:29:22.958Z,11.30
2022-09-29T04:31:50.823Z,11.50
2022-09-29T04:34:19.274Z,12.30
2022-09-29T04:36:47.349Z,11.20
2022-09-29T04:39:15.395Z,11.10
2022-09-29T04:41:43.427Z,12.60
2022-09-29T04:44:11.276Z,11.80
2022-09-29T04:46:39.123Z,10.70
2022-09-29T04:49:07.108Z,10.80
2022-09-29T04:51:34.948Z,12.00
2022-09-29T04:54:03.119Z,12.10
2022-09-29T04:56:31.656Z,10.50
2022-09-29T04:58:59.732Z,12.00
2022-09-29T05:01:27.970Z,12.00
2022-09-29T05:03:56.706Z,11.50
2022-09-29T05:06:24.756Z,11.40
2022-09-29T05:08:52.667Z,11.60
2022-09-29T05:11:20.857Z,12.00
2022-09-29T05:13:51.031Z,12.60
2022-09-29T05:16:18.964Z,11.20
2022-09-29T05:18:47.178Z,12.00
2022-09-29T05:21:30.410Z,13.20
2022-09-29T05:23:58.415Z,10.50
2022-09-29T05:26:26.534Z,10.90
2022-09-29T05:28:54.536Z,13.30
2022-09-29T05:31:22.551Z,12.30
2022-09-29T05:33:50.966Z,12.70
2022-09-29T05:36:19.024Z,12.20
2022-09-29T05:38:47.036Z,14.80
2022-09-29T05:41:22.535Z,13.00
2022-09-29T05:43:53.799Z,13.90
2022-09-29T05:46:22.950Z,12.20
2022-09-29T05:48:51.438Z,14.00
2022-09-29T05:51:23.479Z,13.80
2022-09-29T05:53:52.186Z,14.40
2022-09-29T05:56:25.802Z,15.70
2022-09-29T05:58:54.400Z,15.10
2022-09-29T06:01:24.654Z,14.10
2022-09-29T06:03:56.680Z,17.70
2022-09-29T06:06:29.276Z,14.50
2022-09-29T06:08:59.252Z,14.20
2022-09-29T06:11:32.839Z,13.40
2022-09-29T06:14:03.431Z,13.10
2022-09-29T06:16:33.472Z,15.60
2022-09-29T06:19:02.707Z,15.00
2022-09-29T06:21:31.673Z,14.40
2022-09-29T06:23:59.617Z,15.60
2022-09-29T06:26:28.377Z,19.30
2022-09-29T06:28:57.438Z,15.60
2022-09-29T06:31:27.775Z,15.10
2022-09-29T06:34:04.859Z,15.10
2022-09-29T06:36:57.975Z,14.90
2022-09-29T06:39:26.595Z,16.40
2022-09-29T06:41:56.187Z,14.60
2022-09-29T06:44:32.988Z,14.70
2022-09-29T06:47:19.067Z,17.70
2022-09-29T06:49:47.062Z,16.20
2022-09-29T06:52:20.922Z,15.10
2022-09-29T06:54:49.541Z,15.20
2022-09-29T06:57:18.906Z,14.80
2022-09-29T06:59:46.804Z,15.50
2022-09-29T07:02:15.089Z,17.70
2022-09-29T07:04:43.018Z,16.10
2022-09-29T07:07:10.990Z,16.80
2022-09-29T07:09:38.832Z,17.90
2022-09-29T07:12:07.451Z,15.70
2022-09-29T07:14:35.561Z,16.50
2022-09-29T07:17:03.587Z,14.90
2022-09-29T07:19:32.515Z,16.20
2022-09-29T07:22:00.639Z,17.00
2022-09-29T07:24:29.150Z,15.60
2022-09-29T07:26:57.125Z,16.30
2022-09-29T07:29:24.984Z,15.70
2022-09-29T07:31:55.415Z,17.10
2022-09-29T07:34:23.927Z,16.30
2022-09-29T07:36:51.880Z,17.00
2022-09-29T07:39:21.641Z,19.10
2022-09-29T07:41:50.487Z,18.60
2022-09-29T07:44:18.522Z,17.60
2022-09-29T07:46:49.030Z,17.70
2022-09-29T07:49:17.686Z,17.40
2022-09-29T07:51:46.041Z,18.50
2022-09-29T07:54:13.969Z,16.80
2022-09-29T07:56:41.892Z,16.00
2022-09-29T07:59:12.619Z,16.50
2022-09-29T08:01:40.811Z,15.50
2022-09-29T08:04:08.797Z,15.70
2022-09-29T08:06:37.129Z,16.30
2022-09-29T08:09:05.603Z,16.00
2022-09-29T08:11:38.372Z,15.80
2022-09-29T08:14:07.927Z,16.40
2022-09-29T08:16:38.088Z,16.20
2022-09-29T08:19:07.195Z,15.70
2022-09-29T08:21:37.622Z,16.10
2022-09-29T08:24:07.217Z,16.60
2022-09-29T08:26:43.368Z,15.80
2022-09-29T08:29:17.094Z,16.90
2022-09-29T08:31:46.734Z,17.70
2022-09-29T08:34:15.783Z,16.60
2022-09-29T08:36:44.002Z,16.60
2022-09-29T08:39:12.998Z,18.30
2022-09-29T08:41:59.950Z,18.00
2022-09-29T08:44:47.851Z,17.60
2022-09-29T08:47:46.024Z,21.10
2022-09-29T08:50:31.303Z,18.00
2022-09-29T08:53:05.544Z,19.90
2022-09-29T08:55:52.866Z,19.00
2022-09-29T08:58:20.992Z,17.60
2022-09-29T09:01:18.640Z,18.50
2022-09-29T09:04:18.795Z,17.10
2022-09-29T09:07:05.467Z,17.50
2022-09-29T09:09:49.680Z,16.50
2022-09-29T09:12:36.488Z,17.80
2022-09-29T09:15:07.454Z,15.60
2022-09-29T09:17:35.231Z,16.20
2022-09-29T09:20:25.425Z,15.50
2022-09-29T09:22:59.696Z,15.40
2022-09-29T09:25:38.899Z,14.70
2022-09-29T09:28:26.952Z,15.40
2022-09-29T09:31:01.385Z,13.90
2022-09-29T09:33:39.380Z,14.40
2022-09-29T09:36:34.254Z,14.50
2022-09-29T09:39:10.847Z,15.90
2022-09-29T09:56:59.465Z,14.40
2022-09-29T09:59:41.683Z,14.00
2022-09-29T10:02:24.152Z,16.80
2022-09-29T10:04:52.415Z,12.90
2022-09-29T10:07:20.448Z,12.10
2022-09-29T10:09:47.801Z,12.40
2022-09-29T10:12:16.834Z,11.60
2022-09-29T10:15:12.441Z,12.20
2022-09-29T10:17:43.546Z,11.30
2022-09-29T10:20:11.570Z,11.50
2022-09-29T10:22:38.577Z,11.10
2022-09-29T10:25:22.251Z,11.50
2022-09-29T10:27:52.211Z,11.50
2022-09-29T10:30:22.741Z,11.70
2022-09-29T10:32:57.317Z,11.50
2022-09-29T10:35:28.295Z,10.00
2022-09-29T10:38:07.701Z,10.40
2022-09-29T10:40:34.943Z,9.60
2022-09-29T10:43:24.155Z,11.20
2022-09-29T10:45:50.726Z,9.30
2022-09-29T10:48:18.292Z,10.20
2022-09-29T10:50:49.868Z,12.20
2022-09-29T10:53:19.635Z,11.10
2022-09-29T10:55:55.591Z,9.80
2022-09-29T10:58:45.453Z,10.80
2022-09-29T11:01:18.881Z,16.20
2022-09-29T11:04:04.206Z,12.80
2022-09-29T11:06:34.069Z,11.30
2022-09-29T11:09:07.412Z,12.00
2022-09-29T11:11:36.489Z,12.40
2022-09-29T11:14:03.104Z,11.90
2022-09-29T11:16:37.598Z,11.80
2022-09-29T11:19:10.459Z,11.40
2022-09-29T11:21:47.602Z,11.80
2022-09-29T11:24:29.894Z,11.40
2022-09-29T11:27:28.126Z,12.10
2022-09-29T11:30:05.826Z,10.80
2022-09-29T11:32:48.958Z,14.70
2022-09-29T11:35:26.416Z,11.60
2022-09-29T11:38:01.500Z,11.50
2022-09-29T11:40:47.861Z,12.00
2022-09-29T11:43:39.400Z,10.60
2022-09-29T11:46:25.930Z,12.00
2022-09-29T11:49:10.987Z,12.50
2022-09-29T11:52:09.344Z,13.20
2022-09-29T11:54:55.698Z,11.70
2022-09-29T11:57:44.003Z,12.20
2022-09-29T12:00:27.233Z,12.40
2022-09-29T12:03:25.016Z,12.30
2022-09-29T12:06:23.200Z,11.90
2022-09-29T12:09:00.862Z,11.30
2022-09-29T12:11:54.920Z,11.50
2022-09-29T12:14:41.182Z,11.90
2022-09-29T12:17:13.250Z,12.90
2022-09-29T12:19:44.256Z,12.10
2022-09-29T12:22:18.475Z,11.40
2022-09-29T12:24:51.173Z,9.80
2022-09-29T12:27:26.180Z,9.80
2022-09-29T12:30:01.500Z,10.50
2022-09-29T12:32:31.568Z,11.10
2022-09-29T12:35:17.437Z,9.50
2022-09-29T12:37:47.056Z,9.50
2022-09-29T12:40:23.613Z,10.40
2022-09-29T12:43:22.184Z,10.80
2022-09-29T12:46:19.355Z,10.40
2022-09-29T12:48:58.566Z,10.90
2022-09-29T12:51:36.360Z,10.30
2022-09-29T12:54:27.939Z,9.00
2022-09-29T12:57:01.358Z,10.10
2022-09-29T13:00:00.203Z,9.70
2022-09-29T13:03:02.084Z,10.00
2022-09-29T13:06:00.469Z,8.40
2022-09-29T13:08:46.354Z,9.70
2022-09-29T13:11:34.601Z,9.80
2022-09-29T13:14:31.953Z,10.30
2022-09-29T13:17:22.656Z,10.40
2022-09-29T13:20:03.035Z,10.20
2022-09-29T13:22:45.572Z,9.10
2022-09-29T13:25:50.984Z,10.00
2022-09-29T13:28:24.252Z,10.90
2022-09-29T13:30:53.039Z,10.60
2022-09-29T13:33:23.334Z,11.00
2022-09-29T13:35:51.985Z,10.90
2022-09-29T13:38:36.527Z,9.30
2022-09-29T13:41:11.563Z,10.40
2022-09-29T13:43:54.893Z,9.90
2022-09-29T13:46:39.368Z,9.50
2022-09-29T13:49:08.690Z,10.40
2022-09-29T13:51:43.192Z,10.00
2022-09-29T13:54:26.371Z,10.00
2022-09-29T13:57:12.096Z,10.00
2022-09-29T14:00:01.670Z,10.30
2022-09-29T14:02:40.942Z,10.50
2022-09-29T14:05:23.509Z,8.10
2022-09-29T14:08:06.857Z,8.20
2022-09-29T14:10:36.511Z,8.80
2022-09-29T14:13:07.994Z,7.80
2022-09-29T14:15:40.470Z,9.60
2022-09-29T14:18:18.530Z,9.90
2022-09-29T14:21:04.213Z,7.60
2022-09-29T14:23:51.608Z,7.70
2022-09-29T14:26:49.064Z,7.40
2022-09-29T14:29:40.395Z,8.40
2022-09-29T14:32:17.464Z,7.70
2022-09-29T14:34:45.507Z,8.60
2022-09-29T14:37:19.583Z,9.30
2022-09-29T14:40:06.766Z,9.00
2022-09-29T14:42:34.338Z,15.40
2022-09-29T14:45:20.324Z,9.00
2022-09-29T14:48:18.506Z,8.90
2022-09-29T14:51:29.100Z,9.20
2022-09-29T14:54:09.556Z,9.60
2022-09-29T14:57:02.914Z,9.20
2022-09-29T14:59:48.014Z,8.30
2022-09-29T15:02:33.495Z,9.40
2022-09-29T15:04:59.998Z,10.80
2022-09-29T15:07:27.991Z,9.30
2022-09-29T15:10:03.101Z,9.90
2022-09-29T15:12:34.624Z,9.70
2022-09-29T15:15:01.609Z,11.40
2022-09-29T15:18:00.613Z,10.50
2022-09-29T15:20:38.379Z,10.10
2022-09-29T15:23:25.585Z,10.20
2022-09-29T15:25:56.872Z,9.90
2022-09-29T15:28:39.697Z,10.10
2022-09-29T15:31:10.241Z,9.70
2022-09-29T15:33:42.599Z,10.40
2022-09-29T15:36:18.115Z,10.00
2022-09-29T15:38:44.537Z,10.50
2022-09-29T15:41:12.233Z,9.90
2022-09-29T15:44:00.395Z,11.20
2022-09-29T15:46:35.661Z,9.90
2022-09-29T15:49:20.478Z,9.80
2022-09-29T15:52:05.899Z,9.80
2022-09-29T15:54:44.112Z,9.30
2022-09-29T15:57:50.315Z,11.10
2022-09-29T16:00:23.446Z,9.70
2022-09-29T16:03:08.924Z,9.90
2022-09-29T16:05:41.531Z,10.70
2022-09-29T16:08:24.391Z,9.70
2022-09-29T16:11:08.450Z,12.40
2022-09-29T16:13:40.530Z,11.20
2022-09-29T16:16:10.014Z,10.40
2022-09-29T16:18:47.130Z,11.10
2022-09-29T16:21:20.663Z,11.80
2022-09-29T16:26:17.487Z,11.80
2022-09-29T16:29:16.611Z,11.90
2022-09-29T16:31:45.978Z,22.70
2022-09-29T16:34:21.619Z,18.20
2022-09-29T16:36:54.514Z,23.20
2022-09-29T16:39:42.748Z,22.40
2022-09-29T16:42:19.978Z,21.50
2022-09-29T16:44:50.699Z,20.50
2022-09-29T16:47:23.082Z,18.10
2022-09-29T16:49:52.910Z,16.40
2022-09-29T16:52:27.764Z,16.20
2022-09-29T16:55:14.631Z,19.10
2022-09-29T16:58:01.438Z,17.40
2022-09-29T17:00:29.602Z,16.70
2022-09-29T17:02:57.209Z,21.20
2022-09-29T17:05:25.153Z,16.70
2022-09-29T17:08:03.497Z,17.50
2022-09-29T17:10:30.608Z,15.60
2022-09-29T17:12:57.836Z,15.60
2022-09-29T17:15:25.200Z,17.80
2022-09-29T17:17:51.849Z,16.80
2022-09-29T17:20:28.333Z,16.20
2022-09-29T17:22:55.981Z,14.80
2022-09-29T17:25:22.610Z,14.10
2022-09-29T17:28:05.119Z,16.80
2022-09-29T17:30:31.576Z,21.00
2022-09-29T17:32:59.140Z,21.90
2022-09-29T17:35:36.761Z,25.90
2022-09-29T17:38:06.803Z,48.80
2022-09-29T17:40:52.198Z,29.70
2022-09-29T17:43:19.088Z,23.50
2022-09-29T17:45:46.258Z,24.10
2022-09-29T17:48:14.858Z,28.80
2022-09-29T17:50:48.331Z,29.40
2022-09-29T17:53:15.913Z,33.70
2022-09-29T17:55:44.677Z,45.10
2022-09-29T17:58:15.296Z,41.10
2022-09-29T18:00:45.713Z,31.70
2022-09-29T18:03:12.713Z,35.20
2022-09-29T18:05:41.444Z,35.30
2022-09-29T18:08:16.486Z,60.00
2022-09-29T18:11:04.518Z,42.40
2022-09-29T18:13:31.269Z,27.00
2022-09-29T18:15:59.558Z,25.50
2022-09-29T18:18:26.255Z,23.00
2022-09-29T18:20:52.816Z,25.10
2022-09-29T18:23:22.322Z,24.10
2022-09-29T18:25:50.270Z,24.00
2022-09-29T18:28:17.747Z,22.80
2022-09-29T18:30:48.121Z,24.70
2022-09-29T18:33:17.585Z,26.90
2022-09-29T18:35:46.376Z,32.80
2022-09-29T18:38:13.390Z,34.70
2022-09-29T18:40:39.955Z,33.10
2022-09-29T18:43:06.493Z,31.50
2022-09-29T18:45:37.746Z,30.20
2022-09-29T18:48:06.667Z,33.30
2022-09-29T18:50:38.368Z,36.00
2022-09-29T18:53:05.487Z,38.00
2022-09-29T18:55:32.056Z,34.70
2022-09-29T18:57:59.986Z,35.60
2022-09-29T19:00:40.236Z,35.20
2022-09-29T19:03:07.359Z,36.10
2022-09-29T19:05:35.325Z,30.80
2022-09-29T19:08:04.398Z,32.80
2022-09-29T19:10:33.330Z,30.90
2022-09-29T19:13:03.453Z,38.40
2022-09-29T19:15:34.548Z,39.20
2022-09-29T19:18:02.954Z,45.30
2022-09-29T19:20:29.445Z,41.00
2022-09-29T19:23:01.769Z,41.20
2022-09-29T19:25:32.623Z,35.00
2022-09-29T19:28:03.761Z,43.60
2022-09-29T19:30:37.488Z,41.40
2022-09-29T19:35:31.309Z,42.00
2022-09-29T19:37:58.708Z,36.40
2022-09-29T19:40:28.850Z,36.10
2022-09-29T19:42:57.726Z,34.30
2022-09-29T19:45:24.915Z,32.00
2022-09-29T19:47:56.139Z,33.30
2022-09-29T19:50:40.253Z,34.10
2022-09-29T19:55:39.333Z,35.40
2022-09-29T19:58:06.640Z,40.90
2022-09-29T20:00:33.902Z,41.40
2022-09-29T20:03:00.941Z,38.80
2022-09-29T20:05:27.686Z,37.30
2022-09-29T20:07:54.008Z,35.80
2022-09-29T20:10:21.373Z,32.50
2022-09-29T20:12:47.776Z,32.50
2022-09-29T20:15:14.074Z,28.40
2022-09-29T20:17:43.455Z,33.30
2022-09-29T20:20:11.093Z,32.80
2022-09-29T20:22:37.919Z,33.60
2022-09-29T20:25:07.165Z,36.90
2022-09-29T20:27:35.004Z,34.30
2022-09-29T20:30:04.440Z,31.20
2022-09-29T20:32:32.890Z,28.50
2022-09-29T20:34:59.864Z,26.60
2022-09-29T20:37:28.324Z,27.20
2022-09-29T20:39:55.081Z,25.60
2022-09-29T20:42:22.136Z,30.70
2022-09-29T20:44:54.180Z,28.30
2022-09-29T20:47:24.165Z,26.40
2022-09-29T20:49:50.759Z,30.00
2022-09-29T20:52:17.141Z,26.80
2022-09-29T20:54:44.008Z,26.90
2022-09-29T20:57:10.391Z,27.90
2022-09-29T20:59:36.887Z,27.80
2022-09-29T21:02:03.361Z,25.10
2022-09-29T21:04:29.894Z,25.20
2022-09-29T21:06:56.231Z,25.00
2022-09-29T21:09:23.397Z,36.40
2022-09-29T21:11:52.544Z,34.90
2022-09-29T21:14:22.809Z,29.80
2022-09-29T21:16:52.270Z,26.80
2022-09-29T21:19:25.191Z,26.20
2022-09-29T21:21:53.633Z,23.00
2022-09-29T21:24:20.764Z,19.00
2022-09-29T21:26:47.239Z,23.10
2022-09-29T21:29:16.822Z,23.50
2022-09-29T21:31:44.809Z,23.50
2022-09-29T21:34:13.709Z,21.90
2022-09-29T21:36:41.655Z,21.20
2022-09-29T21:39:09.369Z,19.70
2022-09-29T21:41:38.102Z,21.00
2022-09-29T21:44:12.132Z,21.40
2022-09-29T21:46:39.389Z,24.60
2022-09-29T21:49:07.878Z,23.00
2022-09-29T21:51:40.784Z,22.70
2022-09-29T21:54:14.189Z,24.40
2022-09-29T21:56:42.693Z,23.80
2022-09-29T21:59:11.120Z,25.90
2022-09-29T22:01:39.461Z,25.00
2022-09-29T22:04:07.557Z,25.80
2022-09-29T22:06:36.414Z,27.90
2022-09-29T22:09:04.931Z,27.50
2022-09-29T22:11:35.351Z,29.50
2022-09-29T22:14:02.208Z,26.10
2022-09-29T22:16:31.259Z,30.90
2022-09-29T22:21:46.859Z,20.00
2022-09-29T22:24:13.307Z,20.50
2022-09-29T22:26:40.403Z,19.40
2022-09-29T22:29:07.359Z,18.90
2022-09-29T22:31:34.107Z,21.40
2022-09-29T22:34:03.781Z,21.80
2022-09-29T22:36:33.561Z,21.80
2022-09-29T22:39:01.055Z,23.50
2022-09-29T22:41:28.416Z,21.00
2022-09-29T22:43:56.388Z,23.90
2022-09-29T22:46:24.250Z,22.80
2022-09-29T22:48:50.751Z,22.50
2022-09-29T22:51:17.935Z,18.60
2022-09-29T22:53:44.297Z,21.40
2022-09-29T22:56:29.556Z,19.00
2022-09-29T22:59:03.946Z,20.20
2022-09-29T23:01:32.474Z,20.50
2022-09-29T23:03:59.162Z,21.30
2022-09-29T23:06:25.723Z,24.20
2022-09-29T23:08:54.718Z,29.20
2022-09-29T23:11:21.192Z,26.20
2022-09-29T23:13:48.307Z,21.40
2022-09-29T23:16:16.415Z,26.30
2022-09-29T23:18:45.653Z,24.30
2022-09-29T23:21:16.622Z,21.10
2022-09-29T23:23:43.046Z,20.70
2022-09-29T23:26:09.405Z,21.40
2022-09-29T23:28:36.264Z,19.60
2022-09-29T23:31:07.474Z,19.80
2022-09-29T23:33:34.542Z,20.50
2022-09-29T23:36:21.889Z,21.70
2022-09-29T23:39:04.362Z,19.80
2022-09-29T23:41:31.913Z,19.90
2022-09-29T23:44:03.579Z,18.20
2022-09-29T23:46:32.256Z,21.00
2022-09-29T23:49:08.118Z,19.50
2022-09-29T23:51:39.984Z,18.30
2022-09-29T23:54:07.884Z,19.60
2022-09-29T23:56:35.231Z,20.20
2022-09-29T23:59:01.959Z,21.20
